createdAt,value
2022-11-10T00:00:37.124Z,100.00
2022-11-10T00:03:24.733Z,100.00
2022-11-10T00:06:11.134Z,100.00
2022-11-10T00:08:57.776Z,100.00
2022-11-10T00:11:44.404Z,100.00
2022-11-10T00:14:49.279Z,100.00
2022-11-10T00:17:38.852Z,100.00
2022-11-10T00:20:25.223Z,100.00
2022-11-10T00:23:11.443Z,100.00
2022-11-10T00:25:58.005Z,100.00
2022-11-10T00:28:45.397Z,100.00
2022-11-10T00:31:31.782Z,100.00
2022-11-10T00:34:18.229Z,100.00
2022-11-10T00:37:04.956Z,100.00
2022-11-10T00:39:51.154Z,100.00
2022-11-10T00:42:37.499Z,100.00
2022-11-10T00:45:23.722Z,100.00
2022-11-10T00:48:09.960Z,100.00
2022-11-10T00:50:56.212Z,100.00
2022-11-10T00:53:42.646Z,100.00
2022-11-10T00:56:28.604Z,100.00
2022-11-10T00:59:14.945Z,100.00
2022-11-10T01:02:01.198Z,100.00
2022-11-10T01:04:47.960Z,100.00
2022-11-10T01:07:34.337Z,100.00
2022-11-10T01:10:20.718Z,100.00
2022-11-10T01:13:06.625Z,100.00
2022-11-10T01:15:52.844Z,100.00
2022-11-10T01:18:39.485Z,100.00
2022-11-10T01:21:27.165Z,100.00
2022-11-10T01:24:13.560Z,100.00
2022-11-10T01:26:59.766Z,100.00
2022-11-10T01:29:46.537Z,100.00
2022-11-10T01:32:32.819Z,100.00
2022-11-10T01:35:18.912Z,100.00
2022-11-10T01:38:05.080Z,100.00
2022-11-10T01:40:51.950Z,100.00
2022-11-10T01:43:38.576Z,100.00
2022-11-10T01:46:24.864Z,100.00
2022-11-10T01:49:12.419Z,100.00
2022-11-10T01:52:09.310Z,100.00
2022-11-10T01:54:55.771Z,100.00
2022-11-10T01:57:42.998Z,100.00
2022-11-10T02:00:29.431Z,100.00
2022-11-10T02:03:36.576Z,100.00
2022-11-10T02:06:27.307Z,100.00
2022-11-10T02:09:13.593Z,100.00
2022-11-10T02:12:00.266Z,100.00
2022-11-10T02:14:46.538Z,100.00
2022-11-10T02:17:32.964Z,100.00
2022-11-10T02:20:21.796Z,100.00
2022-11-10T02:23:31.432Z,100.00
2022-11-10T02:26:29.843Z,100.00
2022-11-10T02:29:16.426Z,100.00
2022-11-10T02:32:02.717Z,100.00
2022-11-10T02:34:49.439Z,100.00
2022-11-10T02:37:35.763Z,100.00
2022-11-10T02:40:21.969Z,100.00
2022-11-10T02:43:14.060Z,100.00
2022-11-10T02:46:00.829Z,100.00
2022-11-10T02:48:47.279Z,100.00
2022-11-10T02:51:33.747Z,100.00
2022-11-10T02:54:19.734Z,100.00
2022-11-10T02:57:06.527Z,100.00
2022-11-10T02:59:53.000Z,100.00
2022-11-10T03:02:39.593Z,100.00
2022-11-10T03:05:25.902Z,100.00
2022-11-10T03:08:12.237Z,100.00
2022-11-10T03:10:58.441Z,100.00
2022-11-10T03:14:00.885Z,100.00
2022-11-10T03:16:48.530Z,100.00
2022-11-10T03:19:35.333Z,100.00
2022-11-10T03:22:21.418Z,100.00
2022-11-10T03:25:08.882Z,100.00
2022-11-10T03:27:55.289Z,100.00
2022-11-10T03:30:42.866Z,100.00
2022-11-10T03:33:29.021Z,100.00
2022-11-10T03:36:15.495Z,100.00
2022-11-10T03:39:01.847Z,100.00
2022-11-10T03:41:48.073Z,100.00
2022-11-10T03:44:34.114Z,100.00
2022-11-10T03:47:20.703Z,100.00
2022-11-10T03:50:07.524Z,100.00
2022-11-10T03:52:53.972Z,100.00
2022-11-10T03:55:40.700Z,100.00
2022-11-10T03:58:27.067Z,100.00
2022-11-10T04:01:13.472Z,100.00
2022-11-10T04:04:00.209Z,100.00
2022-11-10T04:07:05.543Z,100.00
2022-11-10T04:09:52.069Z,100.00
2022-11-10T04:12:57.166Z,100.00
2022-11-10T04:15:43.902Z,100.00
2022-11-10T04:18:30.344Z,100.00
2022-11-10T04:21:16.572Z,100.00
2022-11-10T04:24:02.811Z,100.00
2022-11-10T04:26:49.661Z,100.00
2022-11-10T04:29:35.806Z,100.00
2022-11-10T04:32:22.445Z,100.00
2022-11-10T04:35:09.149Z,100.00
2022-11-10T04:37:55.566Z,100.00
2022-11-10T04:40:41.764Z,100.00
2022-11-10T04:43:28.540Z,100.00
2022-11-10T04:46:35.566Z,100.00
2022-11-10T04:49:21.899Z,100.00
2022-11-10T04:52:08.018Z,100.00
2022-11-10T04:54:54.425Z,100.00
2022-11-10T04:57:40.698Z,100.00
2022-11-10T05:00:27.169Z,100.00
2022-11-10T05:03:14.147Z,100.00
2022-11-10T05:06:00.618Z,100.00
2022-11-10T05:08:47.868Z,100.00
2022-11-10T05:11:34.206Z,100.00
2022-11-10T05:14:20.498Z,100.00
2022-11-10T05:17:06.758Z,100.00
2022-11-10T05:19:52.922Z,100.00
2022-11-10T05:22:39.216Z,100.00
2022-11-10T05:25:25.306Z,100.00
2022-11-10T05:28:13.015Z,100.00
2022-11-10T05:30:59.258Z,100.00
2022-11-10T05:33:46.037Z,100.00
2022-11-10T05:36:32.295Z,100.00
2022-11-10T05:39:18.502Z,100.00
2022-11-10T05:42:04.616Z,100.00
2022-11-10T05:44:51.097Z,100.00
2022-11-10T05:47:37.999Z,100.00
2022-11-10T05:50:25.543Z,100.00
2022-11-10T05:53:11.925Z,100.00
2022-11-10T05:55:58.120Z,100.00
2022-11-10T05:58:44.365Z,100.00
2022-11-10T06:01:30.854Z,100.00
2022-11-10T06:04:17.559Z,100.00
2022-11-10T06:07:04.031Z,100.00
2022-11-10T06:09:50.394Z,100.00
2022-11-10T06:12:36.729Z,100.00
2022-11-10T06:15:23.033Z,100.00
2022-11-10T06:18:09.625Z,100.00
2022-11-10T06:20:55.694Z,100.00
2022-11-10T06:23:42.252Z,100.00
2022-11-10T06:26:28.710Z,100.00
2022-11-10T06:29:15.487Z,100.00
2022-11-10T06:32:01.781Z,100.00
2022-11-10T06:34:48.038Z,100.00
2022-11-10T06:37:34.228Z,100.00
2022-11-10T06:40:20.746Z,100.00
2022-11-10T06:43:07.085Z,100.00
2022-11-10T06:45:53.400Z,100.00
2022-11-10T06:48:40.272Z,100.00
2022-11-10T06:51:26.834Z,100.00
2022-11-10T06:54:13.165Z,100.00
2022-11-10T06:56:59.560Z,100.00
2022-11-10T06:59:45.727Z,100.00
2022-11-10T07:02:32.270Z,100.00
2022-11-10T07:05:18.648Z,100.00
2022-11-10T07:08:08.346Z,100.00
2022-11-10T07:10:56.046Z,100.00
2022-11-10T07:13:43.066Z,100.00
2022-11-10T07:16:29.145Z,100.00
2022-11-10T07:19:15.794Z,100.00
2022-11-10T07:22:06.654Z,100.00
2022-11-10T07:24:56.935Z,100.00
2022-11-10T07:27:43.254Z,100.00
2022-11-10T07:30:31.936Z,100.00
2022-11-10T07:33:18.138Z,100.00
2022-11-10T07:36:05.475Z,100.00
2022-11-10T07:38:51.743Z,100.00
2022-11-10T07:41:38.060Z,100.00
2022-11-10T07:44:24.806Z,100.00
2022-11-10T07:47:11.503Z,100.00
2022-11-10T07:49:57.445Z,100.00
2022-11-10T07:52:44.313Z,100.00
2022-11-10T07:55:30.858Z,100.00
2022-11-10T07:58:18.863Z,100.00
2022-11-10T08:01:04.995Z,100.00
2022-11-10T08:03:51.286Z,100.00
2022-11-10T08:06:37.747Z,100.00
2022-11-10T08:09:24.468Z,100.00
2022-11-10T08:12:10.827Z,100.00
2022-11-10T08:14:57.115Z,100.00
2022-11-10T08:17:43.468Z,100.00
2022-11-10T08:20:30.539Z,100.00
2022-11-10T08:23:17.922Z,100.00
2022-11-10T08:26:04.343Z,100.00
2022-11-10T08:28:50.462Z,100.00
2022-11-10T08:31:38.357Z,100.00
2022-11-10T08:34:24.487Z,100.00
2022-11-10T08:37:11.018Z,100.00
2022-11-10T08:39:57.505Z,100.00
2022-11-10T08:42:44.109Z,100.00
2022-11-10T08:45:30.299Z,100.00
2022-11-10T08:48:19.702Z,100.00
2022-11-10T08:51:05.861Z,100.00
2022-11-10T08:53:52.117Z,100.00
2022-11-10T08:56:38.495Z,100.00
2022-11-10T08:59:25.458Z,100.00
2022-11-10T09:02:11.607Z,100.00
2022-11-10T09:04:58.094Z,100.00
2022-11-10T09:07:46.511Z,100.00
2022-11-10T09:10:35.307Z,100.00
2022-11-10T09:13:27.954Z,100.00
2022-11-10T09:16:16.872Z,100.00
2022-11-10T09:19:03.248Z,100.00
2022-11-10T09:21:49.773Z,100.00
2022-11-10T09:24:36.010Z,100.00
2022-11-10T09:27:22.373Z,100.00
2022-11-10T09:30:13.034Z,100.00
2022-11-10T09:33:04.201Z,100.00
2022-11-10T09:35:50.963Z,100.00
2022-11-10T09:38:37.448Z,100.00
2022-11-10T09:41:23.659Z,100.00
2022-11-10T09:44:23.385Z,100.00
2022-11-10T09:50:54.276Z,100.00
2022-11-10T09:53:50.323Z,100.00
2022-11-10T09:56:38.180Z,100.00
2022-11-10T09:59:29.446Z,100.00
2022-11-10T10:02:33.737Z,100.00
2022-11-10T10:05:41.529Z,100.00
2022-11-10T10:08:52.938Z,99.36
2022-11-10T10:12:16.759Z,99.19
2022-11-10T10:15:29.849Z,98.97
2022-11-10T10:18:25.190Z,98.85
2022-11-10T10:21:20.788Z,98.52
2022-11-10T10:24:19.949Z,98.69
2022-11-10T10:27:15.634Z,98.59
2022-11-10T10:30:02.136Z,98.01
2022-11-10T10:32:49.334Z,98.38
2022-11-10T10:35:41.456Z,98.53
2022-11-10T10:38:37.701Z,98.15
2022-11-10T10:41:32.096Z,98.23
2022-11-10T10:44:19.740Z,98.19
2022-11-10T10:47:06.256Z,97.72
2022-11-10T10:49:52.607Z,97.34
2022-11-10T10:52:38.961Z,97.19
2022-11-10T10:55:29.331Z,96.60
2022-11-10T10:58:26.518Z,96.32
2022-11-10T11:01:16.378Z,96.08
2022-11-10T11:04:25.260Z,95.33
2022-11-10T11:07:25.229Z,94.55
2022-11-10T11:10:33.587Z,93.68
2022-11-10T11:13:25.490Z,92.94
2022-11-10T11:16:12.702Z,92.51
2022-11-10T11:18:59.611Z,92.72
2022-11-10T11:22:05.046Z,91.68
2022-11-10T11:25:06.570Z,91.50
2022-11-10T11:28:11.874Z,91.01
2022-11-10T11:31:41.739Z,91.01
2022-11-10T11:35:01.768Z,90.86
2022-11-10T11:38:00.093Z,90.83
2022-11-10T11:40:46.335Z,91.20
2022-11-10T11:43:50.764Z,91.25
2022-11-10T11:47:02.372Z,91.56
2022-11-10T11:50:06.486Z,91.72
2022-11-10T11:53:01.754Z,90.92
2022-11-10T11:55:53.894Z,91.50
2022-11-10T11:59:02.978Z,89.78
2022-11-10T12:02:03.848Z,89.36
2022-11-10T12:04:58.700Z,90.04
2022-11-10T12:08:03.387Z,89.88
2022-11-10T12:11:16.126Z,90.04
2022-11-10T12:14:34.335Z,90.08
2022-11-10T12:17:26.549Z,90.26
2022-11-10T12:20:37.442Z,90.43
2022-11-10T12:23:35.009Z,90.15
2022-11-10T12:26:56.988Z,89.81
2022-11-10T12:29:50.357Z,89.41
2022-11-10T12:32:59.091Z,88.98
2022-11-10T12:35:47.724Z,89.26
2022-11-10T12:39:02.927Z,88.37
2022-11-10T12:41:59.743Z,88.51
2022-11-10T12:45:05.588Z,88.47
2022-11-10T12:47:53.302Z,88.54
2022-11-10T12:50:42.529Z,88.21
2022-11-10T12:53:35.599Z,87.32
2022-11-10T12:56:37.474Z,86.93
2022-11-10T12:59:23.395Z,87.18
2022-11-10T13:02:40.165Z,87.57
2022-11-10T13:05:42.500Z,87.77
2022-11-10T13:08:33.117Z,87.84
2022-11-10T13:11:19.292Z,87.80
2022-11-10T13:14:22.666Z,88.31
2022-11-10T13:17:11.620Z,88.23
2022-11-10T13:20:20.756Z,88.49
2022-11-10T13:23:27.091Z,89.00
2022-11-10T13:26:38.846Z,89.63
2022-11-10T13:29:34.991Z,89.90
2022-11-10T13:32:30.631Z,90.05
2022-11-10T13:35:29.120Z,90.04
2022-11-10T13:38:41.773Z,89.73
2022-11-10T13:41:28.292Z,89.81
2022-11-10T13:44:47.739Z,90.17
2022-11-10T13:47:58.158Z,90.47
2022-11-10T13:50:56.389Z,90.80
2022-11-10T13:54:20.383Z,91.19
2022-11-10T13:57:15.794Z,91.29
2022-11-10T14:00:21.925Z,91.29
2022-11-10T14:03:43.767Z,92.01
2022-11-10T14:06:52.953Z,92.03
2022-11-10T14:09:41.464Z,92.51
2022-11-10T14:12:35.421Z,93.08
2022-11-10T14:15:40.185Z,93.14
2022-11-10T14:18:49.226Z,93.61
2022-11-10T14:22:14.231Z,93.85
2022-11-10T14:25:22.029Z,94.11
2022-11-10T14:28:32.775Z,94.31
2022-11-10T14:31:25.289Z,94.66
2022-11-10T14:34:23.728Z,94.98
2022-11-10T14:37:21.288Z,95.41
2022-11-10T14:40:17.547Z,95.88
2022-11-10T14:43:03.621Z,95.63
2022-11-10T14:45:53.464Z,95.84
2022-11-10T14:48:39.628Z,96.42
2022-11-10T14:51:29.227Z,96.74
2022-11-10T14:54:28.132Z,96.79
2022-11-10T14:57:18.726Z,97.31
2022-11-10T15:00:14.515Z,98.15
2022-11-10T15:03:02.675Z,99.06
2022-11-10T15:05:49.621Z,99.19
2022-11-10T15:08:36.949Z,99.37
2022-11-10T15:11:52.373Z,99.86
2022-11-10T15:14:46.793Z,100.00
2022-11-10T15:17:50.698Z,100.00
2022-11-10T15:20:40.085Z,100.00
2022-11-10T15:23:38.534Z,100.00
2022-11-10T15:26:28.459Z,100.00
2022-11-10T15:29:24.978Z,100.00
2022-11-10T15:32:21.731Z,100.00
2022-11-10T15:35:24.477Z,100.00
2022-11-10T15:38:19.646Z,100.00
2022-11-10T15:41:11.277Z,100.00
2022-11-10T15:44:11.204Z,100.00
2022-11-10T15:46:59.209Z,100.00
2022-11-10T15:49:45.988Z,100.00
2022-11-10T15:52:33.534Z,100.00
2022-11-10T15:55:24.389Z,100.00
2022-11-10T15:58:22.571Z,100.00
2022-11-10T16:01:12.531Z,100.00
2022-11-10T16:03:58.627Z,100.00
2022-11-10T16:06:46.477Z,100.00
2022-11-10T16:09:32.765Z,100.00
2022-11-10T16:12:23.452Z,100.00
2022-11-10T16:15:21.005Z,100.00
2022-11-10T16:18:22.565Z,100.00
2022-11-10T16:21:14.272Z,100.00
2022-11-10T16:24:00.917Z,100.00
2022-11-10T16:26:47.344Z,100.00
2022-11-10T16:29:35.322Z,100.00
2022-11-10T16:32:21.778Z,100.00
2022-11-10T16:35:13.869Z,100.00
2022-11-10T16:37:59.853Z,100.00
2022-11-10T16:40:50.697Z,100.00
2022-11-10T16:43:36.980Z,100.00
2022-11-10T16:46:24.456Z,100.00
2022-11-10T16:49:34.793Z,100.00
2022-11-10T16:52:22.594Z,100.00
2022-11-10T16:55:12.492Z,100.00
2022-11-10T16:57:59.288Z,100.00
2022-11-10T17:00:48.348Z,100.00
2022-11-10T17:03:44.809Z,100.00
2022-11-10T17:06:31.124Z,100.00
2022-11-10T17:09:26.071Z,100.00
2022-11-10T17:12:15.602Z,100.00
2022-11-10T17:15:01.781Z,100.00
2022-11-10T17:17:54.318Z,100.00
2022-11-10T17:20:43.193Z,100.00
2022-11-10T17:23:30.080Z,100.00
2022-11-10T17:26:18.179Z,100.00
2022-11-10T17:29:05.086Z,100.00
2022-11-10T17:31:51.756Z,100.00
2022-11-10T17:34:38.310Z,100.00
2022-11-10T17:37:24.580Z,100.00
2022-11-10T17:40:22.455Z,100.00
2022-11-10T17:43:14.557Z,100.00
2022-11-10T17:46:00.814Z,100.00
2022-11-10T17:48:47.913Z,100.00
2022-11-10T17:51:35.870Z,100.00
2022-11-10T17:54:22.170Z,100.00
2022-11-10T17:57:10.982Z,100.00
2022-11-10T17:59:57.383Z,100.00
2022-11-10T18:02:45.645Z,100.00
2022-11-10T18:05:32.494Z,100.00
2022-11-10T18:08:18.953Z,100.00
2022-11-10T18:11:05.503Z,100.00
2022-11-10T18:13:51.905Z,100.00
2022-11-10T18:16:38.626Z,100.00
2022-11-10T18:19:24.525Z,100.00
2022-11-10T18:22:10.842Z,100.00
2022-11-10T18:24:57.391Z,100.00
2022-11-10T18:27:43.963Z,100.00
2022-11-10T18:30:34.906Z,100.00
2022-11-10T18:33:22.567Z,100.00
2022-11-10T18:36:09.585Z,100.00
2022-11-10T18:38:56.386Z,100.00
2022-11-10T18:41:48.874Z,100.00
2022-11-10T18:44:38.660Z,100.00
2022-11-10T18:47:24.995Z,100.00
2022-11-10T18:50:11.765Z,100.00
2022-11-10T18:52:58.484Z,100.00
2022-11-10T18:55:54.852Z,100.00
2022-11-10T18:58:41.994Z,100.00
2022-11-10T19:01:28.618Z,100.00
2022-11-10T19:04:14.743Z,100.00
2022-11-10T19:07:01.093Z,100.00
2022-11-10T19:09:47.487Z,100.00
2022-11-10T19:12:34.606Z,100.00
2022-11-10T19:15:20.481Z,100.00
2022-11-10T19:18:06.803Z,100.00
2022-11-10T19:20:52.950Z,100.00
2022-11-10T19:23:39.954Z,100.00
2022-11-10T19:26:27.363Z,100.00
2022-11-10T19:29:15.300Z,100.00
2022-11-10T19:32:01.405Z,100.00
2022-11-10T19:34:47.831Z,100.00
2022-11-10T19:37:36.661Z,100.00
2022-11-10T19:40:23.332Z,100.00
2022-11-10T19:43:09.798Z,100.00
2022-11-10T19:45:56.398Z,100.00
2022-11-10T19:48:44.082Z,100.00
2022-11-10T19:51:30.645Z,100.00
2022-11-10T19:54:17.068Z,100.00
2022-11-10T19:57:03.734Z,100.00
2022-11-10T19:59:49.896Z,100.00
2022-11-10T20:02:41.372Z,100.00
2022-11-10T20:05:30.867Z,100.00
2022-11-10T20:08:17.280Z,100.00
2022-11-10T20:11:09.849Z,100.00
2022-11-10T20:14:00.497Z,100.00
2022-11-10T20:16:46.695Z,100.00
2022-11-10T20:19:40.841Z,100.00
2022-11-10T20:22:27.639Z,100.00
2022-11-10T20:25:14.413Z,100.00
2022-11-10T20:28:03.460Z,100.00
2022-11-10T20:30:50.157Z,100.00
2022-11-10T20:33:38.392Z,100.00
2022-11-10T20:36:30.130Z,100.00
2022-11-10T20:39:17.676Z,100.00
2022-11-10T20:42:03.997Z,100.00
2022-11-10T20:44:50.095Z,100.00
2022-11-10T20:47:36.677Z,100.00
2022-11-10T20:50:24.534Z,100.00
2022-11-10T20:53:11.398Z,100.00
2022-11-10T20:56:02.098Z,100.00
2022-11-10T20:58:49.415Z,100.00
2022-11-10T21:01:37.637Z,100.00
2022-11-10T21:04:24.739Z,100.00
2022-11-10T21:07:11.446Z,100.00
2022-11-10T21:09:58.241Z,100.00
2022-11-10T21:12:50.586Z,100.00
2022-11-10T21:15:40.521Z,100.00
2022-11-10T21:18:37.659Z,100.00
2022-11-10T21:21:34.548Z,100.00
2022-11-10T21:24:21.172Z,100.00
2022-11-10T21:27:09.650Z,100.00
2022-11-10T21:29:56.000Z,100.00
2022-11-10T21:32:42.371Z,100.00
2022-11-10T21:35:28.581Z,100.00
2022-11-10T21:38:14.876Z,100.00
2022-11-10T21:41:01.276Z,100.00
2022-11-10T21:43:47.710Z,100.00
2022-11-10T21:46:33.844Z,100.00
2022-11-10T21:49:20.809Z,100.00
2022-11-10T21:52:07.082Z,100.00
2022-11-10T21:54:53.192Z,100.00
2022-11-10T21:57:39.380Z,100.00
2022-11-10T22:00:26.304Z,100.00
2022-11-10T22:03:12.946Z,100.00
2022-11-10T22:06:08.061Z,100.00
2022-11-10T22:08:54.256Z,100.00
2022-11-10T22:11:59.260Z,100.00
2022-11-10T22:15:04.495Z,100.00
2022-11-10T22:18:09.626Z,100.00
2022-11-10T22:20:56.046Z,100.00
2022-11-10T22:24:00.988Z,100.00
2022-11-10T22:26:46.986Z,100.00
2022-11-10T22:29:34.403Z,100.00
2022-11-10T22:32:20.547Z,100.00
2022-11-10T22:35:07.627Z,100.00
2022-11-10T22:37:54.048Z,100.00
2022-11-10T22:40:58.828Z,100.00
2022-11-10T22:44:03.844Z,100.00
2022-11-10T22:46:52.227Z,100.00
2022-11-10T22:49:38.566Z,100.00
2022-11-10T22:52:25.034Z,100.00
2022-11-10T22:55:10.980Z,100.00
2022-11-10T22:57:57.306Z,100.00
2022-11-10T23:00:43.720Z,100.00
2022-11-10T23:03:30.118Z,100.00
2022-11-10T23:06:16.497Z,100.00
2022-11-10T23:09:03.598Z,100.00
2022-11-10T23:11:49.655Z,100.00
2022-11-10T23:14:35.988Z,100.00
2022-11-10T23:17:22.307Z,100.00
2022-11-10T23:20:09.255Z,100.00
2022-11-10T23:22:56.358Z,100.00
2022-11-10T23:25:42.900Z,100.00
2022-11-10T23:28:30.471Z,100.00
2022-11-10T23:31:22.628Z,100.00
2022-11-10T23:34:09.038Z,100.00
2022-11-10T23:36:55.362Z,100.00
2022-11-10T23:39:41.580Z,100.00
2022-11-10T23:42:29.855Z,100.00
2022-11-10T23:45:18.299Z,100.00
2022-11-10T23:48:06.949Z,100.00
2022-11-10T23:50:53.672Z,100.00
2022-11-10T23:53:41.029Z,100.00
2022-11-10T23:56:27.416Z,100.00
2022-11-10T23:59:13.629Z,100.00
